SCON weather

Quellón Airport
Quellon, Los Lagos Region, Chile

Public forecast

Using degrees Celsius for public forecast. Weather courtesy of forecast.io.

Current aviation weather report (METAR) for Quellón Airport

Retrieved 2019/10/21 01:00 UTC (56 minutes ago):

SCON 210100Z AUTO 32007KT 290V360 9999 FEW031/// SCT054/// OVC100/// 07/06 Q1016

Closest aviation forecast (TAF) to Quellón Airport

Forecast is more than 12 hours old.

Closest forecast is Chaitén Airport, 42.9 nm (79.4 km) ENE. Retrieved 2018/09/16 12:33 UTC (1 year ago):

TAF SPJL 161124Z 1612/1712 VRB04KT 9999 FEW020LVA0551 161131 GG KWBCYMYX MPZZMAMX 161130 SCSCYZYX SPCH03 SCTN 161130 SPECI SCTN 161130Z 36020G31KT +RA SCT013 OVC017 11/09 Q1009